sensor_id;sensor_type;location;lat;lon;timestamp;pressure;altitude;pressure_sealevel;temperature;humidity
20394;BME280;10356;50.544;9.642;2024-03-02T00:00:14;97154.00;;;4.97;100.00
20394;BME280;10356;50.544;9.642;2024-03-02T00:02:41;97156.81;;;4.94;100.00
20394;BME280;10356;50.544;9.642;2024-03-02T00:05:11;97151.03;;;4.91;100.00
20394;BME280;10356;50.544;9.642;2024-03-02T00:07:39;97158.78;;;4.91;100.00
20394;BME280;10356;50.544;9.642;2024-03-02T00:10:08;97153.84;;;4.88;100.00
20394;BME280;10356;50.544;9.642;2024-03-02T00:12:35;97150.75;;;4.83;100.00
20394;BME280;10356;50.544;9.642;2024-03-02T00:15:05;97152.03;;;4.77;100.00
20394;BME280;10356;50.544;9.642;2024-03-02T00:17:33;97161.97;;;4.71;100.00
20394;BME280;10356;50.544;9.642;2024-03-02T00:19:59;97151.03;;;4.67;100.00
20394;BME280;10356;50.544;9.642;2024-03-02T00:22:29;97150.44;;;4.64;100.00
20394;BME280;10356;50.544;9.642;2024-03-02T00:24:55;97150.66;;;4.61;100.00
20394;BME280;10356;50.544;9.642;2024-03-02T00:27:22;97149.22;;;4.57;100.00
20394;BME280;10356;50.544;9.642;2024-03-02T00:29:50;97147.59;;;4.56;100.00
20394;BME280;10356;50.544;9.642;2024-03-02T00:32:16;97145.22;;;4.53;100.00
20394;BME280;10356;50.544;9.642;2024-03-02T00:34:43;97152.94;;;4.53;100.00
20394;BME280;10356;50.544;9.642;2024-03-02T00:37:10;97151.31;;;4.52;100.00
20394;BME280;10356;50.544;9.642;2024-03-02T00:39:39;97152.94;;;4.53;100.00
20394;BME280;10356;50.544;9.642;2024-03-02T00:42:05;97156.47;;;4.52;100.00
20394;BME280;10356;50.544;9.642;2024-03-02T00:44:33;97151.31;;;4.52;100.00
20394;BME280;10356;50.544;9.642;2024-03-02T00:47:01;97153.66;;;4.55;100.00
20394;BME280;10356;50.544;9.642;2024-03-02T00:49:28;97160.38;;;4.57;100.00
20394;BME280;10356;50.544;9.642;2024-03-02T00:51:55;97160.25;;;4.59;100.00
20394;BME280;10356;50.544;9.642;2024-03-02T00:54:23;97156.53;;;4.63;100.00
20394;BME280;10356;50.544;9.642;2024-03-02T00:56:52;97155.72;;;4.62;100.00
20394;BME280;10356;50.544;9.642;2024-03-02T00:59:20;97152.19;;;4.63;100.00
20394;BME280;10356;50.544;9.642;2024-03-02T01:01:47;97158.31;;;4.62;100.00
20394;BME280;10356;50.544;9.642;2024-03-02T01:04:14;97159.81;;;4.65;100.00
20394;BME280;10356;50.544;9.642;2024-03-02T01:06:40;97159.00;;;4.64;100.00
20394;BME280;10356;50.544;9.642;2024-03-02T01:09:07;97159.72;;;4.66;100.00
20394;BME280;10356;50.544;9.642;2024-03-02T01:11:34;97157.25;;;4.65;100.00
20394;BME280;10356;50.544;9.642;2024-03-02T01:14:01;97159.63;;;4.68;100.00
20394;BME280;10356;50.544;9.642;2024-03-02T01:16:29;97162.19;;;4.68;100.00
20394;BME280;10356;50.544;9.642;2024-03-02T01:18:55;97157.16;;;4.66;100.00
20394;BME280;10356;50.544;9.642;2024-03-02T01:21:22;97157.03;;;4.68;100.00
20394;BME280;10356;50.544;9.642;2024-03-02T01:23:48;97156.91;;;4.69;100.00
20394;BME280;10356;50.544;9.642;2024-03-02T01:26:15;97160.31;;;4.70;100.00
20394;BME280;10356;50.544;9.642;2024-03-02T01:28:42;97153.31;;;4.72;100.00
20394;BME280;10356;50.544;9.642;2024-03-02T01:31:10;97149.78;;;4.73;100.00
20394;BME280;10356;50.544;9.642;2024-03-02T01:33:36;97154.22;;;4.71;100.00
20394;BME280;10356;50.544;9.642;2024-03-02T01:36:03;97149.06;;;4.71;100.00
20394;BME280;10356;50.544;9.642;2024-03-02T01:38:30;97150.84;;;4.70;100.00
20394;BME280;10356;50.544;9.642;2024-03-02T01:40:56;97144.84;;;4.70;100.00
20394;BME280;10356;50.544;9.642;2024-03-02T01:43:23;97144.03;;;4.69;100.00
20394;BME280;10356;50.544;9.642;2024-03-02T01:45:51;97145.88;;;4.67;100.00
20394;BME280;10356;50.544;9.642;2024-03-02T01:48:19;97134.97;;;4.64;100.00
20394;BME280;10356;50.544;9.642;2024-03-02T01:50:46;97134.97;;;4.64;100.00
20394;BME280;10356;50.544;9.642;2024-03-02T01:53:12;97137.66;;;4.62;100.00
20394;BME280;10356;50.544;9.642;2024-03-02T01:55:39;97138.47;;;4.63;100.00
20394;BME280;10356;50.544;9.642;2024-03-02T01:58:05;97135.16;;;4.61;100.00
20394;BME280;10356;50.544;9.642;2024-03-02T02:00:32;97137.03;;;4.59;100.00
20394;BME280;10356;50.544;9.642;2024-03-02T02:02:58;97140.69;;;4.56;100.00
20394;BME280;10356;50.544;9.642;2024-03-02T02:05:26;97142.63;;;4.53;100.00
20394;BME280;10356;50.544;9.642;2024-03-02T02:07:53;97144.50;;;4.51;100.00
20394;BME280;10356;50.544;9.642;2024-03-02T02:10:19;97139.56;;;4.48;100.00
20394;BME280;10356;50.544;9.642;2024-03-02T02:12:46;97146.59;;;4.46;100.00
20394;BME280;10356;50.544;9.642;2024-03-02T02:15:23;97144.22;;;4.43;100.00
20394;BME280;10356;50.544;9.642;2024-03-02T02:17:49;97138.69;;;4.36;100.00
20394;BME280;10356;50.544;9.642;2024-03-02T02:20:16;97135.47;;;4.33;100.00
20394;BME280;10356;50.544;9.642;2024-03-02T02:22:57;97135.91;;;4.26;100.00
20394;BME280;10356;50.544;9.642;2024-03-02T02:25:23;97131.00;;;4.23;100.00
20394;BME280;10356;50.544;9.642;2024-03-02T02:27:51;97123.56;;;4.19;100.00
20394;BME280;10356;50.544;9.642;2024-03-02T02:30:21;97122.03;;;4.16;100.00
20394;BME280;10356;50.544;9.642;2024-03-02T02:32:48;97123.88;;;4.14;100.00
20394;BME280;10356;50.544;9.642;2024-03-02T02:35:15;97112.84;;;4.12;100.00
20394;BME280;10356;50.544;9.642;2024-03-02T02:37:42;97123.41;;;4.09;100.00
20394;BME280;10356;50.544;9.642;2024-03-02T02:40:11;97122.88;;;4.04;100.00
20394;BME280;10356;50.544;9.642;2024-03-02T02:42:38;97116.41;;;3.99;100.00
20394;BME280;10356;50.544;9.642;2024-03-02T02:45:06;97115.91;;;3.94;100.00
20394;BME280;10356;50.544;9.642;2024-03-02T02:47:32;97115.38;;;3.89;100.00
20394;BME280;10356;50.544;9.642;2024-03-02T02:50:02;97114.88;;;3.84;100.00
20394;BME280;10356;50.544;9.642;2024-03-02T02:52:32;97109.09;;;3.80;100.00
20394;BME280;10356;50.544;9.642;2024-03-02T02:55:01;97110.25;;;3.76;100.00
20394;BME280;10356;50.544;9.642;2024-03-02T02:57:29;97112.94;;;3.75;100.00
20394;BME280;10356;50.544;9.642;2024-03-02T03:00:00;97117.25;;;3.74;100.00
20394;BME280;10356;50.544;9.642;2024-03-02T03:02:27;97107.38;;;3.68;100.00
20394;BME280;10356;50.544;9.642;2024-03-02T03:04:54;97099.94;;;3.64;100.00
20394;BME280;10356;50.544;9.642;2024-03-02T03:07:22;97101.72;;;3.63;100.00
20394;BME280;10356;50.544;9.642;2024-03-02T03:09:48;97095.13;;;3.59;100.00
20394;BME280;10356;50.544;9.642;2024-03-02T03:12:15;97099.97;;;3.51;100.00
20394;BME280;10356;50.544;9.642;2024-03-02T03:14:43;97099.56;;;3.45;100.00
20394;BME280;10356;50.544;9.642;2024-03-02T03:17:09;97109.44;;;3.38;100.00
20394;BME280;10356;50.544;9.642;2024-03-02T03:19:38;97112.25;;;3.35;100.00
20394;BME280;10356;50.544;9.642;2024-03-02T03:22:04;97110.88;;;3.29;100.00
20394;BME280;10356;50.544;9.642;2024-03-02T03:24:31;97106.34;;;3.20;100.00
20394;BME280;10356;50.544;9.642;2024-03-02T03:26:58;97106.16;;;3.11;100.00
20394;BME280;10356;50.544;9.642;2024-03-02T03:29:24;97099.75;;;3.04;100.00
20394;BME280;10356;50.544;9.642;2024-03-02T03:31:52;97105.28;;;2.98;100.00
20394;BME280;10356;50.544;9.642;2024-03-02T03:34:18;97104.69;;;2.94;100.00
20394;BME280;10356;50.544;9.642;2024-03-02T03:36:45;97108.25;;;2.92;100.00
20394;BME280;10356;50.544;9.642;2024-03-02T03:39:11;97111.97;;;2.88;100.00
20394;BME280;10356;50.544;9.642;2024-03-02T03:41:38;97108.88;;;2.83;100.00
20394;BME280;10356;50.544;9.642;2024-03-02T03:44:04;97109.16;;;2.78;100.00
20394;BME280;10356;50.544;9.642;2024-03-02T03:46:31;97097.63;;;2.71;100.00
20394;BME280;10356;50.544;9.642;2024-03-02T03:48:58;97104.81;;;2.66;100.00
20394;BME280;10356;50.544;9.642;2024-03-02T03:51:25;97094.31;;;2.69;100.00
20394;BME280;10356;50.544;9.642;2024-03-02T03:53:51;97101.13;;;2.70;100.00
20394;BME280;10356;50.544;9.642;2024-03-02T03:56:18;97097.72;;;2.70;100.00
20394;BME280;10356;50.544;9.642;2024-03-02T03:58:44;97097.81;;;2.68;100.00
20394;BME280;10356;50.544;9.642;2024-03-02T04:01:11;97103.69;;;2.70;100.00
20394;BME280;10356;50.544;9.642;2024-03-02T04:03:37;97106.31;;;2.83;100.00
20394;BME280;10356;50.544;9.642;2024-03-02T04:06:05;97102.91;;;2.82;100.00
20394;BME280;10356;50.544;9.642;2024-03-02T04:08:32;97102.22;;;2.93;100.00
20394;BME280;10356;50.544;9.642;2024-03-02T04:10:58;97100.25;;;2.96;100.00
20394;BME280;10356;50.544;9.642;2024-03-02T04:13:25;97097.06;;;2.93;100.00
20394;BME280;10356;50.544;9.642;2024-03-02T04:15:51;97097.47;;;2.87;100.00
20394;BME280;10356;50.544;9.642;2024-03-02T04:18:19;97100.50;;;2.79;100.00
20394;BME280;10356;50.544;9.642;2024-03-02T04:20:45;97096.41;;;2.77;100.00
20394;BME280;10356;50.544;9.642;2024-03-02T04:23:13;97105.03;;;2.76;100.00
20394;BME280;10356;50.544;9.642;2024-03-02T04:25:40;97096.72;;;2.72;100.00
20394;BME280;10356;50.544;9.642;2024-03-02T04:28:06;97097.63;;;2.71;100.00
20394;BME280;10356;50.544;9.642;2024-03-02T04:30:32;97102.75;;;2.71;100.00
20394;BME280;10356;50.544;9.642;2024-03-02T04:32:59;97100.72;;;2.76;100.00
20394;BME280;10356;50.544;9.642;2024-03-02T04:35:27;97101.75;;;2.74;100.00
20394;BME280;10356;50.544;9.642;2024-03-02T04:37:54;97102.88;;;2.70;100.00
20394;BME280;10356;50.544;9.642;2024-03-02T04:40:22;97102.75;;;2.71;100.00
20394;BME280;10356;50.544;9.642;2024-03-02T04:42:48;97110.19;;;2.76;100.00
20394;BME280;10356;50.544;9.642;2024-03-02T04:45:14;97110.91;;;2.78;100.00
20394;BME280;10356;50.544;9.642;2024-03-02T04:47:41;97103.19;;;2.78;100.00
20394;BME280;10356;50.544;9.642;2024-03-02T04:50:08;97107.31;;;2.80;100.00
20394;BME280;10356;50.544;9.642;2024-03-02T04:52:35;97110.81;;;2.79;100.00
20394;BME280;10356;50.544;9.642;2024-03-02T04:55:02;97112.56;;;2.79;100.00
20394;BME280;10356;50.544;9.642;2024-03-02T04:58:01;97115.31;;;2.76;100.00
20394;BME280;10356;50.544;9.642;2024-03-02T05:00:28;97113.78;;;2.73;100.00
20394;BME280;10356;50.544;9.642;2024-03-02T05:02:54;97114.09;;;2.69;100.00
20394;BME280;10356;50.544;9.642;2024-03-02T05:05:21;97116.72;;;2.67;100.00
20394;BME280;10356;50.544;9.642;2024-03-02T05:07:47;97115.72;;;2.70;100.00
20394;BME280;10356;50.544;9.642;2024-03-02T05:10:14;97118.13;;;2.73;100.00
20394;BME280;10356;50.544;9.642;2024-03-02T05:12:40;97126.00;;;2.70;100.00
20394;BME280;10356;50.544;9.642;2024-03-02T05:15:23;97124.16;;;2.72;100.00
20394;BME280;10356;50.544;9.642;2024-03-02T05:17:49;97129.50;;;2.69;100.00
20394;BME280;10356;50.544;9.642;2024-03-02T05:20:16;97119.63;;;2.63;100.00
20394;BME280;10356;50.544;9.642;2024-03-02T05:22:43;97121.47;;;2.61;100.00
20394;BME280;10356;50.544;9.642;2024-03-02T05:25:09;97132.66;;;2.60;100.00
20394;BME280;10356;50.544;9.642;2024-03-02T05:27:36;97120.69;;;2.73;100.00
20394;BME280;10356;50.544;9.642;2024-03-02T05:30:03;97126.00;;;2.70;100.00
20394;BME280;10356;50.544;9.642;2024-03-02T05:32:33;97125.19;;;2.69;100.00
20394;BME280;10356;50.544;9.642;2024-03-02T05:34:59;97125.72;;;2.74;100.00
20394;BME280;10356;50.544;9.642;2024-03-02T05:37:25;97127.28;;;2.77;100.00
20394;BME280;10356;50.544;9.642;2024-03-02T05:39:52;97132.22;;;2.80;100.00
20394;BME280;10356;50.544;9.642;2024-03-02T05:42:19;97131.31;;;2.81;100.00
20394;BME280;10356;50.544;9.642;2024-03-02T05:44:45;97136.22;;;2.84;100.00
20394;BME280;10356;50.544;9.642;2024-03-02T05:47:12;97138.81;;;2.84;100.00
20394;BME280;10356;50.544;9.642;2024-03-02T05:49:40;97143.13;;;2.83;100.00
20394;BME280;10356;50.544;9.642;2024-03-02T05:52:08;97140.88;;;2.79;100.00
20394;BME280;10356;50.544;9.642;2024-03-02T05:54:34;97142.72;;;2.77;100.00
20394;BME280;10356;50.544;9.642;2024-03-02T05:57:01;97153.91;;;2.76;100.00
20394;BME280;10356;50.544;9.642;2024-03-02T05:59:42;97141.88;;;2.76;100.00
20394;BME280;10356;50.544;9.642;2024-03-02T06:02:09;97143.63;;;2.76;100.00
20394;BME280;10356;50.544;9.642;2024-03-02T06:04:35;97147.47;;;2.83;100.00
20394;BME280;10356;50.544;9.642;2024-03-02T06:07:03;97148.38;;;2.82;100.00
20394;BME280;10356;50.544;9.642;2024-03-02T06:09:29;97143.22;;;2.82;100.00
20394;BME280;10356;50.544;9.642;2024-03-02T06:11:56;97139.34;;;2.89;100.00
20394;BME280;10356;50.544;9.642;2024-03-02T06:14:22;97151.81;;;2.95;100.00
20394;BME280;10356;50.544;9.642;2024-03-02T06:16:49;97153.03;;;3.02;100.00
20394;BME280;10356;50.544;9.642;2024-03-02T06:19:15;97149.91;;;3.11;100.00
20394;BME280;10356;50.544;9.642;2024-03-02T06:21:42;97147.31;;;3.11;100.00
20394;BME280;10356;50.544;9.642;2024-03-02T06:24:10;97143.81;;;3.12;100.00
20394;BME280;10356;50.544;9.642;2024-03-02T06:26:36;97150.00;;;3.22;100.00
20394;BME280;10356;50.544;9.642;2024-03-02T06:29:02;97156.00;;;3.35;100.00
20394;BME280;10356;50.544;9.642;2024-03-02T06:31:29;97151.88;;;3.45;100.00
20394;BME280;10356;50.544;9.642;2024-03-02T06:33:56;97154.78;;;3.53;100.00
20394;BME280;10356;50.544;9.642;2024-03-02T06:36:22;97157.44;;;3.64;100.00
20394;BME280;10356;50.544;9.642;2024-03-02T06:38:49;97155.59;;;3.66;100.00
20394;BME280;10356;50.544;9.642;2024-03-02T06:41:17;97157.25;;;3.67;100.00
20394;BME280;10356;50.544;9.642;2024-03-02T06:43:43;97143.97;;;3.73;100.00
20394;BME280;10356;50.544;9.642;2024-03-02T06:46:10;97156.41;;;3.79;100.00
20394;BME280;10356;50.544;9.642;2024-03-02T06:48:39;97154.97;;;3.88;100.00
20394;BME280;10356;50.544;9.642;2024-03-02T06:51:06;97158.56;;;3.98;100.00
20394;BME280;10356;50.544;9.642;2024-03-02T06:53:32;97150.78;;;4.10;100.00
20394;BME280;10356;50.544;9.642;2024-03-02T06:55:59;97156.53;;;4.26;100.00
20394;BME280;10356;50.544;9.642;2024-03-02T06:58:27;97156.63;;;4.38;100.00
20394;BME280;10356;50.544;9.642;2024-03-02T07:00:54;97159.88;;;4.52;100.00
20394;BME280;10356;50.544;9.642;2024-03-02T07:03:20;97163.09;;;4.67;100.00
20394;BME280;10356;50.544;9.642;2024-03-02T07:05:46;97168.34;;;4.78;100.00
20394;BME280;10356;50.544;9.642;2024-03-02T07:08:13;97164.16;;;4.88;100.00
20394;BME280;10356;50.544;9.642;2024-03-02T07:10:40;97169.63;;;5.07;100.00
20394;BME280;10356;50.544;9.642;2024-03-02T07:13:06;97175.69;;;5.19;100.00
20394;BME280;10356;50.544;9.642;2024-03-02T07:15:34;97172.06;;;5.32;100.00
20394;BME280;10356;50.544;9.642;2024-03-02T07:18:19;97174.47;;;5.46;100.00
20394;BME280;10356;50.544;9.642;2024-03-02T07:20:46;97172.84;;;5.56;100.00
20394;BME280;10356;50.544;9.642;2024-03-02T07:23:14;97175.22;;;5.70;100.00
20394;BME280;10356;50.544;9.642;2024-03-02T07:25:41;97176.00;;;5.83;100.00
20394;BME280;10356;50.544;9.642;2024-03-02T07:28:07;97188.69;;;5.98;100.00
20394;BME280;10356;50.544;9.642;2024-03-02T07:30:35;97199.03;;;6.09;100.00
20394;BME280;10356;50.544;9.642;2024-03-02T07:33:04;97197.38;;;6.19;100.00
20394;BME280;10356;50.544;9.642;2024-03-02T07:35:31;97205.25;;;6.28;100.00
20394;BME280;10356;50.544;9.642;2024-03-02T07:37:57;97204.69;;;6.36;100.00
20394;BME280;10356;50.544;9.642;2024-03-02T07:40:24;97207.38;;;6.45;100.00
20394;BME280;10356;50.544;9.642;2024-03-02T07:42:51;97204.88;;;6.55;100.00
20394;BME280;10356;50.544;9.642;2024-03-02T07:45:17;97207.94;;;6.60;100.00
20394;BME280;10356;50.544;9.642;2024-03-02T07:47:45;97204.19;;;6.64;100.00
20394;BME280;10356;50.544;9.642;2024-03-02T07:50:12;97204.28;;;6.73;100.00
20394;BME280;10356;50.544;9.642;2024-03-02T07:52:38;97204.63;;;6.80;100.00
20394;BME280;10356;50.544;9.642;2024-03-02T07:55:05;97212.34;;;6.91;100.00
20394;BME280;10356;50.544;9.642;2024-03-02T07:57:32;97211.28;;;6.94;100.00
20394;BME280;10356;50.544;9.642;2024-03-02T07:59:58;97217.03;;;6.97;100.00
20394;BME280;10356;50.544;9.642;2024-03-02T08:05:46;97208.75;;;7.14;100.00
20394;BME280;10356;50.544;9.642;2024-03-02T08:08:12;97222.13;;;7.19;100.00
20394;BME280;10356;50.544;9.642;2024-03-02T08:10:39;97220.94;;;7.23;100.00
20394;BME280;10356;50.544;9.642;2024-03-02T08:13:05;97221.41;;;7.28;100.00
20394;BME280;10356;50.544;9.642;2024-03-02T08:15:32;97218.06;;;7.37;100.00
20394;BME280;10356;50.544;9.642;2024-03-02T08:17:58;97218.53;;;7.42;100.00
20394;BME280;10356;50.544;9.642;2024-03-02T08:20:25;97219.38;;;7.43;100.00
20394;BME280;10356;50.544;9.642;2024-03-02T08:22:53;97223.22;;;7.48;100.00
20394;BME280;10356;50.544;9.642;2024-03-02T08:25:20;97215.38;;;7.59;100.00
20394;BME280;10356;50.544;9.642;2024-03-02T08:27:47;97217.59;;;7.64;100.00
20394;BME280;10356;50.544;9.642;2024-03-02T08:30:14;97213.44;;;7.73;100.00
20394;BME280;10356;50.544;9.642;2024-03-02T08:32:40;97213.38;;;7.84;100.00
20394;BME280;10356;50.544;9.642;2024-03-02T08:35:07;97218.16;;;7.88;100.00
20394;BME280;10356;50.544;9.642;2024-03-02T08:37:33;97212.38;;;7.96;100.00
20394;BME280;10356;50.544;9.642;2024-03-02T08:40:06;97204.44;;;7.97;100.00
20394;BME280;10356;50.544;9.642;2024-03-02T08:42:33;97203.13;;;8.12;100.00
20394;BME280;10356;50.544;9.642;2024-03-02T08:45:00;97202.03;;;8.26;99.56
20394;BME280;10356;50.544;9.642;2024-03-02T08:47:27;97209.19;;;8.22;98.26
20394;BME280;10356;50.544;9.642;2024-03-02T08:49:53;97207.81;;;8.39;97.70
20394;BME280;10356;50.544;9.642;2024-03-02T08:52:20;97209.03;;;8.44;96.02
20394;BME280;10356;50.544;9.642;2024-03-02T08:54:46;97211.00;;;8.52;95.06
20394;BME280;10356;50.544;9.642;2024-03-02T08:57:14;97209.97;;;8.64;95.03
20394;BME280;10356;50.544;9.642;2024-03-02T08:59:41;97219.50;;;8.64;95.16
20394;BME280;10356;50.544;9.642;2024-03-02T09:02:07;97212.94;;;8.60;94.84
20394;BME280;10356;50.544;9.642;2024-03-02T09:04:34;97209.69;;;8.67;94.76
20394;BME280;10356;50.544;9.642;2024-03-02T09:07:00;97216.16;;;8.82;93.76
20394;BME280;10356;50.544;9.642;2024-03-02T09:09:27;97214.41;;;8.92;93.26
20394;BME280;10356;50.544;9.642;2024-03-02T09:11:53;97217.53;;;8.86;91.44
20394;BME280;10356;50.544;9.642;2024-03-02T09:14:24;97208.78;;;8.87;91.20
20394;BME280;10356;50.544;9.642;2024-03-02T09:16:50;97218.38;;;8.96;90.79
20394;BME280;10356;50.544;9.642;2024-03-02T09:19:17;97217.28;;;9.08;90.72
20394;BME280;10356;50.544;9.642;2024-03-02T09:21:44;97211.13;;;9.09;89.32
20394;BME280;10356;50.544;9.642;2024-03-02T09:24:10;97212.66;;;9.21;89.57
20394;BME280;10356;50.544;9.642;2024-03-02T09:26:37;97223.72;;;9.23;89.06
20394;BME280;10356;50.544;9.642;2024-03-02T09:29:04;97213.31;;;9.23;88.53
20394;BME280;10356;50.544;9.642;2024-03-02T09:31:32;97220.44;;;9.21;88.30
20394;BME280;10356;50.544;9.642;2024-03-02T09:33:58;97220.03;;;9.26;88.76
20394;BME280;10356;50.544;9.642;2024-03-02T09:36:25;97216.75;;;9.33;88.35
20394;BME280;10356;50.544;9.642;2024-03-02T09:38:51;97229.22;;;9.49;87.83
20394;BME280;10356;50.544;9.642;2024-03-02T09:41:18;97220.75;;;9.47;87.44
20394;BME280;10356;50.544;9.642;2024-03-02T09:43:44;97225.94;;;9.47;87.06
20394;BME280;10356;50.544;9.642;2024-03-02T09:46:11;97224.97;;;9.58;86.49
20394;BME280;10356;50.544;9.642;2024-03-02T09:48:39;97228.94;;;9.62;85.36
20394;BME280;10356;50.544;9.642;2024-03-02T09:51:05;97228.41;;;9.58;84.47
20394;BME280;10356;50.544;9.642;2024-03-02T09:53:33;97234.13;;;9.62;84.41
20394;BME280;10356;50.544;9.642;2024-03-02T09:56:00;97229.47;;;9.75;84.38
20394;BME280;10356;50.544;9.642;2024-03-02T09:58:27;97234.13;;;9.90;83.41
20394;BME280;10356;50.544;9.642;2024-03-02T10:00:53;97235.75;;;10.01;83.71
20394;BME280;10356;50.544;9.642;2024-03-02T10:03:20;97230.25;;;10.23;81.00
20394;BME280;10356;50.544;9.642;2024-03-02T10:05:48;97233.38;;;10.36;81.10
20394;BME280;10356;50.544;9.642;2024-03-02T10:08:14;97231.38;;;10.84;79.30
20394;BME280;10356;50.544;9.642;2024-03-02T10:10:41;97231.84;;;10.97;77.83
20394;BME280;10356;50.544;9.642;2024-03-02T10:13:09;97234.28;;;10.99;75.62
20394;BME280;10356;50.544;9.642;2024-03-02T10:15:37;97240.13;;;11.11;76.40
20394;BME280;10356;50.544;9.642;2024-03-02T10:18:08;97233.44;;;11.26;74.07
20394;BME280;10356;50.544;9.642;2024-03-02T10:20:37;97243.84;;;11.08;74.61
20394;BME280;10356;50.544;9.642;2024-03-02T10:23:12;97234.94;;;10.83;74.84
20394;BME280;10356;50.544;9.642;2024-03-02T10:25:39;97231.06;;;10.87;75.73
20394;BME280;10356;50.544;9.642;2024-03-02T10:28:06;97226.09;;;10.94;74.77
20394;BME280;10356;50.544;9.642;2024-03-02T10:30:32;97226.78;;;11.14;73.54
20394;BME280;10356;50.544;9.642;2024-03-02T10:33:00;97225.25;;;11.38;73.61
20394;BME280;10356;50.544;9.642;2024-03-02T10:35:27;97226.00;;;11.31;73.33
20394;BME280;10356;50.544;9.642;2024-03-02T10:37:53;97223.47;;;11.56;72.77
20394;BME280;10356;50.544;9.642;2024-03-02T10:40:22;97223.53;;;11.82;71.14
20394;BME280;10356;50.544;9.642;2024-03-02T10:42:50;97211.28;;;12.00;68.08
20394;BME280;10356;50.544;9.642;2024-03-02T10:45:19;97203.38;;;11.92;67.04
20394;BME280;10356;50.544;9.642;2024-03-02T10:47:46;97210.59;;;11.72;65.22
20394;BME280;10356;50.544;9.642;2024-03-02T10:50:13;97213.22;;;11.98;65.24
20394;BME280;10356;50.544;9.642;2024-03-02T10:52:40;97205.00;;;12.11;64.00
20394;BME280;10356;50.544;9.642;2024-03-02T10:55:09;97201.72;;;12.42;62.19
20394;BME280;10356;50.544;9.642;2024-03-02T10:57:41;97195.75;;;12.92;59.60
20394;BME280;10356;50.544;9.642;2024-03-02T11:00:12;97205.66;;;13.22;56.95
20394;BME280;10356;50.544;9.642;2024-03-02T11:02:42;97194.25;;;13.39;57.90
20394;BME280;10356;50.544;9.642;2024-03-02T11:05:15;97199.16;;;13.66;56.80
20394;BME280;10356;50.544;9.642;2024-03-02T11:07:44;97194.09;;;13.81;55.58
20394;BME280;10356;50.544;9.642;2024-03-02T11:10:12;97191.94;;;13.92;54.35
20394;BME280;10356;50.544;9.642;2024-03-02T11:12:49;97195.56;;;13.99;54.64
20394;BME280;10356;50.544;9.642;2024-03-02T11:15:18;97194.53;;;14.08;53.76
20394;BME280;10356;50.544;9.642;2024-03-02T11:17:46;97196.53;;;13.66;55.24
20394;BME280;10356;50.544;9.642;2024-03-02T11:20:13;97189.34;;;13.76;54.69
20394;BME280;10356;50.544;9.642;2024-03-02T11:22:41;97190.97;;;13.85;54.20
20394;BME280;10356;50.544;9.642;2024-03-02T11:25:23;97190.00;;;13.54;54.33
20394;BME280;10356;50.544;9.642;2024-03-02T11:28:01;97192.59;;;13.62;54.04
20394;BME280;10356;50.544;9.642;2024-03-02T11:30:50;97184.59;;;13.47;51.35
20394;BME280;10356;50.544;9.642;2024-03-02T11:33:23;97179.53;;;13.70;53.90
20394;BME280;10356;50.544;9.642;2024-03-02T11:35:52;97176.75;;;14.59;52.29
20394;BME280;10356;50.544;9.642;2024-03-02T11:38:19;97171.66;;;14.96;47.98
20394;BME280;10356;50.544;9.642;2024-03-02T11:40:45;97165.34;;;15.36;46.91
20394;BME280;10356;50.544;9.642;2024-03-02T11:43:13;97172.13;;;15.30;48.54
20394;BME280;10356;50.544;9.642;2024-03-02T11:45:42;97167.03;;;15.59;45.82
20394;BME280;10356;50.544;9.642;2024-03-02T11:48:10;97166.19;;;15.81;45.73
20394;BME280;10356;50.544;9.642;2024-03-02T11:50:40;97163.00;;;15.86;46.12
20394;BME280;10356;50.544;9.642;2024-03-02T11:53:09;97155.94;;;15.86;45.25
20394;BME280;10356;50.544;9.642;2024-03-02T11:55:36;97143.91;;;16.07;44.41
20394;BME280;10356;50.544;9.642;2024-03-02T11:58:03;97156.28;;;15.46;46.64
20394;BME280;10356;50.544;9.642;2024-03-02T12:03:00;97145.16;;;15.96;44.60
20394;BME280;10356;50.544;9.642;2024-03-02T12:05:27;97140.13;;;16.24;42.63
20394;BME280;10356;50.544;9.642;2024-03-02T12:07:56;97142.69;;;16.61;43.30
20394;BME280;10356;50.544;9.642;2024-03-02T12:10:23;97135.94;;;16.73;42.61
20394;BME280;10356;50.544;9.642;2024-03-02T12:12:55;97136.22;;;16.05;43.53
20394;BME280;10356;50.544;9.642;2024-03-02T12:15:23;97127.19;;;16.08;42.91
20394;BME280;10356;50.544;9.642;2024-03-02T12:17:54;97125.50;;;15.77;43.12
20394;BME280;10356;50.544;9.642;2024-03-02T12:20:21;97123.09;;;15.68;43.58
20394;BME280;10356;50.544;9.642;2024-03-02T12:22:49;97121.22;;;15.76;43.52
20394;BME280;10356;50.544;9.642;2024-03-02T12:25:16;97123.34;;;16.10;43.09
20394;BME280;10356;50.544;9.642;2024-03-02T12:27:42;97116.00;;;16.35;43.07
20394;BME280;10356;50.544;9.642;2024-03-02T12:30:10;97108.59;;;16.09;42.63
20394;BME280;10356;50.544;9.642;2024-03-02T12:32:39;97118.38;;;16.59;43.03
20394;BME280;10356;50.544;9.642;2024-03-02T12:35:08;97108.75;;;16.37;42.10
20394;BME280;10356;50.544;9.642;2024-03-02T12:37:42;97102.88;;;16.35;43.43
20394;BME280;10356;50.544;9.642;2024-03-02T12:40:09;97109.22;;;16.11;43.04
20394;BME280;10356;50.544;9.642;2024-03-02T12:42:36;97107.03;;;16.00;43.50
20394;BME280;10356;50.544;9.642;2024-03-02T12:45:03;97101.94;;;15.69;43.47
20394;BME280;10356;50.544;9.642;2024-03-02T12:47:30;97101.00;;;15.62;44.74
20394;BME280;10356;50.544;9.642;2024-03-02T12:49:56;97094.63;;;15.79;44.42
20394;BME280;10356;50.544;9.642;2024-03-02T12:52:24;97093.56;;;16.18;44.69
20394;BME280;10356;50.544;9.642;2024-03-02T12:54:51;97091.38;;;16.07;41.74
20394;BME280;10356;50.544;9.642;2024-03-02T12:57:25;97094.63;;;16.09;44.16
20394;BME280;10356;50.544;9.642;2024-03-02T12:59:51;97087.19;;;15.83;45.10
20394;BME280;10356;50.544;9.642;2024-03-02T13:02:18;97081.25;;;15.52;44.96
20394;BME280;10356;50.544;9.642;2024-03-02T13:04:52;97088.28;;;15.88;44.09
20394;BME280;10356;50.544;9.642;2024-03-02T13:07:19;97080.13;;;16.13;43.07
20394;BME280;10356;50.544;9.642;2024-03-02T13:09:49;97080.13;;;16.13;44.46